sensor_id;sensor_type;location;lat;lon;timestamp;P1;durP1;ratioP1;P2;durP2;ratioP2
46551;SDS011;32278;51.810;4.712;2023-04-23T00:00:36;122.70;;;50.90;;
46551;SDS011;32278;51.810;4.712;2023-04-23T00:03:04;102.43;;;46.35;;
46551;SDS011;32278;51.810;4.712;2023-04-23T00:05:34;113.97;;;47.97;;
46551;SDS011;32278;51.810;4.712;2023-04-23T00:08:01;114.18;;;48.47;;
46551;SDS011;32278;51.810;4.712;2023-04-23T00:10:28;115.55;;;47.78;;
46551;SDS011;32278;51.810;4.712;2023-04-23T00:12:54;108.63;;;48.85;;
46551;SDS011;32278;51.810;4.712;2023-04-23T00:15:20;116.00;;;48.40;;
46551;SDS011;32278;51.810;4.712;2023-04-23T00:17:47;118.50;;;48.72;;
46551;SDS011;32278;51.810;4.712;2023-04-23T00:20:13;114.55;;;46.72;;
46551;SDS011;32278;51.810;4.712;2023-04-23T00:22:40;98.93;;;45.28;;
46551;SDS011;32278;51.810;4.712;2023-04-23T00:25:06;109.45;;;46.30;;
46551;SDS011;32278;51.810;4.712;2023-04-23T00:27:33;111.00;;;47.10;;
46551;SDS011;32278;51.810;4.712;2023-04-23T00:29:59;117.25;;;48.15;;
46551;SDS011;32278;51.810;4.712;2023-04-23T00:32:25;113.90;;;47.50;;
46551;SDS011;32278;51.810;4.712;2023-04-23T00:34:51;106.38;;;45.78;;
46551;SDS011;32278;51.810;4.712;2023-04-23T00:37:18;113.47;;;45.55;;
46551;SDS011;32278;51.810;4.712;2023-04-23T00:39:44;112.13;;;46.88;;
46551;SDS011;32278;51.810;4.712;2023-04-23T00:42:10;113.80;;;48.92;;
46551;SDS011;32278;51.810;4.712;2023-04-23T00:44:39;112.55;;;46.83;;
46551;SDS011;32278;51.810;4.712;2023-04-23T00:47:05;122.65;;;47.42;;
46551;SDS011;32278;51.810;4.712;2023-04-23T00:49:35;103.28;;;46.38;;
46551;SDS011;32278;51.810;4.712;2023-04-23T00:52:03;102.75;;;44.38;;
46551;SDS011;32278;51.810;4.712;2023-04-23T00:54:29;109.30;;;46.65;;
46551;SDS011;32278;51.810;4.712;2023-04-23T00:56:55;100.65;;;42.60;;
46551;SDS011;32278;51.810;4.712;2023-04-23T00:59:24;90.05;;;40.47;;
46551;SDS011;32278;51.810;4.712;2023-04-23T01:01:51;100.28;;;42.83;;
46551;SDS011;32278;51.810;4.712;2023-04-23T01:04:18;81.07;;;37.47;;
46551;SDS011;32278;51.810;4.712;2023-04-23T01:06:45;78.60;;;36.85;;
46551;SDS011;32278;51.810;4.712;2023-04-23T01:09:11;85.85;;;37.53;;
46551;SDS011;32278;51.810;4.712;2023-04-23T01:11:38;80.43;;;37.28;;
46551;SDS011;32278;51.810;4.712;2023-04-23T01:14:04;72.32;;;36.40;;
46551;SDS011;32278;51.810;4.712;2023-04-23T01:16:30;74.53;;;38.22;;
46551;SDS011;32278;51.810;4.712;2023-04-23T01:18:56;78.60;;;36.90;;
46551;SDS011;32278;51.810;4.712;2023-04-23T01:21:23;71.07;;;35.97;;
46551;SDS011;32278;51.810;4.712;2023-04-23T01:23:50;63.08;;;31.02;;
46551;SDS011;32278;51.810;4.712;2023-04-23T01:26:16;65.63;;;33.97;;
46551;SDS011;32278;51.810;4.712;2023-04-23T01:28:43;58.20;;;31.15;;
46551;SDS011;32278;51.810;4.712;2023-04-23T01:31:10;58.78;;;29.55;;
46551;SDS011;32278;51.810;4.712;2023-04-23T01:33:38;63.67;;;31.58;;
46551;SDS011;32278;51.810;4.712;2023-04-23T01:36:04;57.17;;;31.88;;
46551;SDS011;32278;51.810;4.712;2023-04-23T01:38:30;53.40;;;29.70;;
46551;SDS011;32278;51.810;4.712;2023-04-23T01:40:57;55.25;;;30.77;;
46551;SDS011;32278;51.810;4.712;2023-04-23T01:43:24;54.17;;;30.27;;
46551;SDS011;32278;51.810;4.712;2023-04-23T01:45:50;50.42;;;29.75;;
46551;SDS011;32278;51.810;4.712;2023-04-23T01:48:17;53.33;;;29.08;;
46551;SDS011;32278;51.810;4.712;2023-04-23T01:50:43;53.95;;;28.13;;
46551;SDS011;32278;51.810;4.712;2023-04-23T01:53:09;53.15;;;29.00;;
46551;SDS011;32278;51.810;4.712;2023-04-23T01:55:36;48.22;;;28.20;;
46551;SDS011;32278;51.810;4.712;2023-04-23T01:58:03;49.08;;;27.45;;
46551;SDS011;32278;51.810;4.712;2023-04-23T02:00:30;48.33;;;26.15;;
46551;SDS011;32278;51.810;4.712;2023-04-23T02:02:56;47.60;;;27.48;;
46551;SDS011;32278;51.810;4.712;2023-04-23T02:05:22;45.38;;;27.17;;
46551;SDS011;32278;51.810;4.712;2023-04-23T02:07:49;44.13;;;24.58;;
46551;SDS011;32278;51.810;4.712;2023-04-23T02:10:15;47.92;;;24.85;;
46551;SDS011;32278;51.810;4.712;2023-04-23T02:12:43;44.33;;;24.88;;
46551;SDS011;32278;51.810;4.712;2023-04-23T02:15:10;46.83;;;24.60;;
46551;SDS011;32278;51.810;4.712;2023-04-23T02:17:36;41.20;;;24.02;;
46551;SDS011;32278;51.810;4.712;2023-04-23T02:20:04;44.80;;;24.60;;
46551;SDS011;32278;51.810;4.712;2023-04-23T02:22:30;45.88;;;25.02;;
46551;SDS011;32278;51.810;4.712;2023-04-23T02:24:56;43.40;;;24.75;;
46551;SDS011;32278;51.810;4.712;2023-04-23T02:27:24;47.45;;;26.40;;
46551;SDS011;32278;51.810;4.712;2023-04-23T02:29:50;43.50;;;24.08;;
46551;SDS011;32278;51.810;4.712;2023-04-23T02:32:16;46.83;;;26.33;;
46551;SDS011;32278;51.810;4.712;2023-04-23T02:34:42;45.53;;;25.08;;
46551;SDS011;32278;51.810;4.712;2023-04-23T02:37:08;45.47;;;25.52;;
46551;SDS011;32278;51.810;4.712;2023-04-23T02:39:34;42.85;;;24.63;;
46551;SDS011;32278;51.810;4.712;2023-04-23T02:42:00;42.45;;;24.25;;
46551;SDS011;32278;51.810;4.712;2023-04-23T02:44:26;43.40;;;25.05;;
46551;SDS011;32278;51.810;4.712;2023-04-23T02:46:52;39.08;;;23.60;;
46551;SDS011;32278;51.810;4.712;2023-04-23T02:49:18;42.22;;;23.33;;
46551;SDS011;32278;51.810;4.712;2023-04-23T02:51:44;43.65;;;23.88;;
46551;SDS011;32278;51.810;4.712;2023-04-23T02:54:10;42.55;;;24.85;;
46551;SDS011;32278;51.810;4.712;2023-04-23T02:56:36;42.05;;;24.60;;
46551;SDS011;32278;51.810;4.712;2023-04-23T02:59:02;39.63;;;23.35;;
46551;SDS011;32278;51.810;4.712;2023-04-23T03:01:28;46.50;;;25.25;;
46551;SDS011;32278;51.810;4.712;2023-04-23T03:03:54;40.35;;;24.02;;
46551;SDS011;32278;51.810;4.712;2023-04-23T03:06:21;39.42;;;23.52;;
46551;SDS011;32278;51.810;4.712;2023-04-23T03:08:47;41.90;;;24.38;;
46551;SDS011;32278;51.810;4.712;2023-04-23T03:11:13;42.35;;;24.40;;
46551;SDS011;32278;51.810;4.712;2023-04-23T03:13:39;44.70;;;24.48;;
46551;SDS011;32278;51.810;4.712;2023-04-23T03:16:05;42.38;;;24.85;;
46551;SDS011;32278;51.810;4.712;2023-04-23T03:18:31;44.28;;;24.75;;
46551;SDS011;32278;51.810;4.712;2023-04-23T03:20:57;47.33;;;25.27;;
46551;SDS011;32278;51.810;4.712;2023-04-23T03:23:23;43.72;;;24.42;;
46551;SDS011;32278;51.810;4.712;2023-04-23T03:25:49;43.22;;;24.25;;
46551;SDS011;32278;51.810;4.712;2023-04-23T03:28:15;37.92;;;22.20;;
46551;SDS011;32278;51.810;4.712;2023-04-23T03:30:41;41.28;;;23.65;;
46551;SDS011;32278;51.810;4.712;2023-04-23T03:33:07;38.75;;;22.75;;
46551;SDS011;32278;51.810;4.712;2023-04-23T03:35:33;45.00;;;24.10;;
46551;SDS011;32278;51.810;4.712;2023-04-23T03:38:00;38.58;;;22.95;;
46551;SDS011;32278;51.810;4.712;2023-04-23T03:40:26;38.45;;;23.05;;
46551;SDS011;32278;51.810;4.712;2023-04-23T03:42:52;42.80;;;25.35;;
46551;SDS011;32278;51.810;4.712;2023-04-23T03:45:18;41.60;;;24.25;;
46551;SDS011;32278;51.810;4.712;2023-04-23T03:47:44;39.85;;;23.73;;
46551;SDS011;32278;51.810;4.712;2023-04-23T03:50:10;44.30;;;23.90;;
46551;SDS011;32278;51.810;4.712;2023-04-23T03:52:37;46.15;;;25.23;;
46551;SDS011;32278;51.810;4.712;2023-04-23T03:55:03;42.75;;;24.08;;
46551;SDS011;32278;51.810;4.712;2023-04-23T03:57:29;38.72;;;22.90;;
46551;SDS011;32278;51.810;4.712;2023-04-23T03:59:55;38.67;;;23.00;;
46551;SDS011;32278;51.810;4.712;2023-04-23T04:02:22;40.60;;;23.65;;
46551;SDS011;32278;51.810;4.712;2023-04-23T04:04:48;46.28;;;24.98;;
46551;SDS011;32278;51.810;4.712;2023-04-23T04:07:15;37.28;;;21.27;;
46551;SDS011;32278;51.810;4.712;2023-04-23T04:09:41;42.05;;;24.50;;
46551;SDS011;32278;51.810;4.712;2023-04-23T04:12:07;42.20;;;23.70;;
46551;SDS011;32278;51.810;4.712;2023-04-23T04:14:33;44.28;;;24.23;;
46551;SDS011;32278;51.810;4.712;2023-04-23T04:16:59;45.67;;;25.70;;
46551;SDS011;32278;51.810;4.712;2023-04-23T04:19:25;39.05;;;24.15;;
46551;SDS011;32278;51.810;4.712;2023-04-23T04:21:51;42.40;;;24.02;;
46551;SDS011;32278;51.810;4.712;2023-04-23T04:24:17;41.75;;;24.58;;
46551;SDS011;32278;51.810;4.712;2023-04-23T04:26:44;40.60;;;23.02;;
46551;SDS011;32278;51.810;4.712;2023-04-23T04:29:10;46.15;;;24.55;;
46551;SDS011;32278;51.810;4.712;2023-04-23T04:31:36;45.97;;;25.27;;
46551;SDS011;32278;51.810;4.712;2023-04-23T04:34:02;42.63;;;23.67;;
46551;SDS011;32278;51.810;4.712;2023-04-23T04:36:28;52.63;;;25.08;;
46551;SDS011;32278;51.810;4.712;2023-04-23T04:38:55;48.50;;;26.25;;
46551;SDS011;32278;51.810;4.712;2023-04-23T04:41:24;44.25;;;24.60;;
46551;SDS011;32278;51.810;4.712;2023-04-23T04:43:51;45.67;;;25.27;;
46551;SDS011;32278;51.810;4.712;2023-04-23T04:46:18;42.78;;;24.35;;
46551;SDS011;32278;51.810;4.712;2023-04-23T04:48:44;43.63;;;24.05;;
46551;SDS011;32278;51.810;4.712;2023-04-23T04:51:10;45.40;;;24.25;;
46551;SDS011;32278;51.810;4.712;2023-04-23T04:53:36;41.75;;;23.83;;
46551;SDS011;32278;51.810;4.712;2023-04-23T04:56:02;41.53;;;24.63;;
46551;SDS011;32278;51.810;4.712;2023-04-23T04:58:28;43.45;;;22.67;;
46551;SDS011;32278;51.810;4.712;2023-04-23T05:00:55;34.92;;;20.85;;
46551;SDS011;32278;51.810;4.712;2023-04-23T05:03:21;39.20;;;22.30;;
46551;SDS011;32278;51.810;4.712;2023-04-23T05:05:47;47.67;;;24.80;;
46551;SDS011;32278;51.810;4.712;2023-04-23T05:08:13;37.28;;;22.27;;
46551;SDS011;32278;51.810;4.712;2023-04-23T05:10:42;39.33;;;21.20;;
46551;SDS011;32278;51.810;4.712;2023-04-23T05:13:08;32.78;;;20.08;;
46551;SDS011;32278;51.810;4.712;2023-04-23T05:15:35;39.00;;;21.75;;
46551;SDS011;32278;51.810;4.712;2023-04-23T05:18:04;42.50;;;22.20;;
46551;SDS011;32278;51.810;4.712;2023-04-23T05:20:30;34.85;;;20.95;;
46551;SDS011;32278;51.810;4.712;2023-04-23T05:22:56;34.53;;;20.80;;
46551;SDS011;32278;51.810;4.712;2023-04-23T05:25:26;30.33;;;19.73;;
46551;SDS011;32278;51.810;4.712;2023-04-23T05:27:52;32.88;;;20.02;;
46551;SDS011;32278;51.810;4.712;2023-04-23T05:30:18;33.72;;;19.70;;
46551;SDS011;32278;51.810;4.712;2023-04-23T05:32:44;32.35;;;20.05;;
46551;SDS011;32278;51.810;4.712;2023-04-23T05:35:10;37.25;;;22.08;;
46551;SDS011;32278;51.810;4.712;2023-04-23T05:37:36;32.50;;;20.20;;
46551;SDS011;32278;51.810;4.712;2023-04-23T05:40:02;37.42;;;21.27;;
46551;SDS011;32278;51.810;4.712;2023-04-23T05:42:30;33.67;;;19.70;;
46551;SDS011;32278;51.810;4.712;2023-04-23T05:44:56;31.48;;;19.08;;
46551;SDS011;32278;51.810;4.712;2023-04-23T05:47:22;34.30;;;20.52;;
46551;SDS011;32278;51.810;4.712;2023-04-23T05:49:48;32.17;;;18.13;;
46551;SDS011;32278;51.810;4.712;2023-04-23T05:52:14;31.35;;;18.27;;
46551;SDS011;32278;51.810;4.712;2023-04-23T05:54:40;32.05;;;18.88;;
46551;SDS011;32278;51.810;4.712;2023-04-23T05:57:07;27.98;;;18.25;;
46551;SDS011;32278;51.810;4.712;2023-04-23T05:59:33;34.67;;;19.58;;
46551;SDS011;32278;51.810;4.712;2023-04-23T06:01:59;32.10;;;18.85;;
46551;SDS011;32278;51.810;4.712;2023-04-23T06:04:25;29.10;;;17.60;;
46551;SDS011;32278;51.810;4.712;2023-04-23T06:06:51;27.38;;;17.10;;
46551;SDS011;32278;51.810;4.712;2023-04-23T06:09:17;29.50;;;17.15;;
46551;SDS011;32278;51.810;4.712;2023-04-23T06:11:43;28.10;;;16.70;;
46551;SDS011;32278;51.810;4.712;2023-04-23T06:14:09;25.83;;;16.08;;
46551;SDS011;32278;51.810;4.712;2023-04-23T06:16:35;29.55;;;16.30;;
46551;SDS011;32278;51.810;4.712;2023-04-23T06:19:02;26.23;;;14.50;;
46551;SDS011;32278;51.810;4.712;2023-04-23T06:21:28;24.70;;;15.50;;
46551;SDS011;32278;51.810;4.712;2023-04-23T06:23:54;20.75;;;13.88;;
46551;SDS011;32278;51.810;4.712;2023-04-23T06:26:20;27.58;;;14.55;;
46551;SDS011;32278;51.810;4.712;2023-04-23T06:28:46;26.27;;;14.90;;
46551;SDS011;32278;51.810;4.712;2023-04-23T06:31:12;22.35;;;13.88;;
46551;SDS011;32278;51.810;4.712;2023-04-23T06:33:38;22.10;;;13.38;;
46551;SDS011;32278;51.810;4.712;2023-04-23T06:36:04;24.00;;;13.60;;
46551;SDS011;32278;51.810;4.712;2023-04-23T06:38:30;22.50;;;12.93;;
46551;SDS011;32278;51.810;4.712;2023-04-23T06:40:56;23.77;;;14.00;;
46551;SDS011;32278;51.810;4.712;2023-04-23T06:43:23;17.70;;;12.73;;
46551;SDS011;32278;51.810;4.712;2023-04-23T06:45:49;26.67;;;13.25;;
46551;SDS011;32278;51.810;4.712;2023-04-23T06:48:15;22.10;;;12.90;;
46551;SDS011;32278;51.810;4.712;2023-04-23T06:50:42;23.23;;;12.13;;
46551;SDS011;32278;51.810;4.712;2023-04-23T06:53:08;16.90;;;10.15;;
46551;SDS011;32278;51.810;4.712;2023-04-23T06:55:34;21.05;;;10.27;;
46551;SDS011;32278;51.810;4.712;2023-04-23T06:58:00;14.77;;;8.20;;
46551;SDS011;32278;51.810;4.712;2023-04-23T07:00:26;15.98;;;8.23;;
46551;SDS011;32278;51.810;4.712;2023-04-23T07:02:52;15.68;;;8.80;;
46551;SDS011;32278;51.810;4.712;2023-04-23T07:05:18;18.23;;;9.18;;
46551;SDS011;32278;51.810;4.712;2023-04-23T07:07:44;14.45;;;7.53;;
46551;SDS011;32278;51.810;4.712;2023-04-23T07:10:10;14.73;;;8.75;;
46551;SDS011;32278;51.810;4.712;2023-04-23T07:12:37;16.52;;;8.85;;
46551;SDS011;32278;51.810;4.712;2023-04-23T07:15:03;14.45;;;8.60;;
46551;SDS011;32278;51.810;4.712;2023-04-23T07:17:29;15.43;;;8.35;;
46551;SDS011;32278;51.810;4.712;2023-04-23T07:19:55;21.52;;;9.32;;
46551;SDS011;32278;51.810;4.712;2023-04-23T07:22:22;15.25;;;9.18;;
46551;SDS011;32278;51.810;4.712;2023-04-23T07:24:48;16.70;;;8.65;;
46551;SDS011;32278;51.810;4.712;2023-04-23T07:27:14;14.90;;;8.20;;
46551;SDS011;32278;51.810;4.712;2023-04-23T07:29:40;15.02;;;8.23;;
46551;SDS011;32278;51.810;4.712;2023-04-23T07:32:06;13.00;;;7.63;;
46551;SDS011;32278;51.810;4.712;2023-04-23T07:34:32;17.52;;;8.93;;
46551;SDS011;32278;51.810;4.712;2023-04-23T07:36:58;18.00;;;8.90;;
46551;SDS011;32278;51.810;4.712;2023-04-23T07:39:24;17.38;;;7.82;;
46551;SDS011;32278;51.810;4.712;2023-04-23T07:41:50;17.27;;;7.78;;
46551;SDS011;32278;51.810;4.712;2023-04-23T07:44:16;14.00;;;6.38;;
46551;SDS011;32278;51.810;4.712;2023-04-23T07:46:42;11.82;;;6.97;;
46551;SDS011;32278;51.810;4.712;2023-04-23T07:49:08;12.95;;;7.45;;
46551;SDS011;32278;51.810;4.712;2023-04-23T07:51:34;18.38;;;7.85;;
46551;SDS011;32278;51.810;4.712;2023-04-23T07:54:00;14.88;;;7.78;;
46551;SDS011;32278;51.810;4.712;2023-04-23T07:56:26;13.32;;;6.53;;
46551;SDS011;32278;51.810;4.712;2023-04-23T07:58:52;15.40;;;6.40;;
46551;SDS011;32278;51.810;4.712;2023-04-23T08:01:20;20.27;;;6.88;;
46551;SDS011;32278;51.810;4.712;2023-04-23T08:03:46;11.20;;;6.60;;
46551;SDS011;32278;51.810;4.712;2023-04-23T08:06:12;12.00;;;6.47;;
46551;SDS011;32278;51.810;4.712;2023-04-23T08:08:38;12.88;;;6.93;;
46551;SDS011;32278;51.810;4.712;2023-04-23T08:11:04;11.50;;;6.47;;
46551;SDS011;32278;51.810;4.712;2023-04-23T08:13:31;15.00;;;5.75;;
46551;SDS011;32278;51.810;4.712;2023-04-23T08:15:57;14.38;;;5.70;;
46551;SDS011;32278;51.810;4.712;2023-04-23T08:18:23;13.52;;;6.72;;
46551;SDS011;32278;51.810;4.712;2023-04-23T08:20:49;10.77;;;6.00;;
46551;SDS011;32278;51.810;4.712;2023-04-23T08:23:16;10.63;;;6.30;;
46551;SDS011;32278;51.810;4.712;2023-04-23T08:25:42;8.68;;;5.97;;
46551;SDS011;32278;51.810;4.712;2023-04-23T08:28:08;11.73;;;7.13;;
46551;SDS011;32278;51.810;4.712;2023-04-23T08:30:34;13.23;;;6.07;;
46551;SDS011;32278;51.810;4.712;2023-04-23T08:33:00;15.25;;;5.60;;
46551;SDS011;32278;51.810;4.712;2023-04-23T08:35:25;15.07;;;4.85;;
46551;SDS011;32278;51.810;4.712;2023-04-23T08:37:51;12.80;;;5.53;;
46551;SDS011;32278;51.810;4.712;2023-04-23T08:40:17;19.35;;;5.47;;
46551;SDS011;32278;51.810;4.712;2023-04-23T08:45:22;20.13;;;5.25;;
46551;SDS011;32278;51.810;4.712;2023-04-23T08:47:48;13.02;;;4.75;;
46551;SDS011;32278;51.810;4.712;2023-04-23T08:50:15;12.65;;;5.30;;
46551;SDS011;32278;51.810;4.712;2023-04-23T08:52:45;13.80;;;4.60;;
46551;SDS011;32278;51.810;4.712;2023-04-23T08:55:12;12.52;;;4.35;;
46551;SDS011;32278;51.810;4.712;2023-04-23T08:57:40;20.10;;;4.78;;
46551;SDS011;32278;51.810;4.712;2023-04-23T09:00:07;15.35;;;4.15;;
46551;SDS011;32278;51.810;4.712;2023-04-23T09:02:34;15.55;;;4.78;;
46551;SDS011;32278;51.810;4.712;2023-04-23T09:05:04;10.30;;;4.00;;
46551;SDS011;32278;51.810;4.712;2023-04-23T09:07:30;9.77;;;4.18;;
46551;SDS011;32278;51.810;4.712;2023-04-23T09:09:56;9.38;;;4.70;;
46551;SDS011;32278;51.810;4.712;2023-04-23T09:12:22;12.35;;;4.22;;
46551;SDS011;32278;51.810;4.712;2023-04-23T09:14:51;8.30;;;3.30;;
46551;SDS011;32278;51.810;4.712;2023-04-23T09:17:17;7.38;;;3.70;;
46551;SDS011;32278;51.810;4.712;2023-04-23T09:19:44;13.65;;;4.55;;
46551;SDS011;32278;51.810;4.712;2023-04-23T09:22:10;11.10;;;4.32;;
46551;SDS011;32278;51.810;4.712;2023-04-23T09:24:37;6.68;;;3.58;;
46551;SDS011;32278;51.810;4.712;2023-04-23T09:27:06;10.50;;;3.35;;
46551;SDS011;32278;51.810;4.712;2023-04-23T09:29:32;9.10;;;3.45;;
46551;SDS011;32278;51.810;4.712;2023-04-23T09:32:07;13.35;;;3.50;;
46551;SDS011;32278;51.810;4.712;2023-04-23T09:34:34;15.57;;;3.83;;
46551;SDS011;32278;51.810;4.712;2023-04-23T09:37:01;10.50;;;3.17;;
46551;SDS011;32278;51.810;4.712;2023-04-23T09:39:28;8.10;;;3.58;;
46551;SDS011;32278;51.810;4.712;2023-04-23T09:41:54;13.88;;;3.45;;
46551;SDS011;32278;51.810;4.712;2023-04-23T09:44:29;8.82;;;3.33;;
46551;SDS011;32278;51.810;4.712;2023-04-23T09:46:56;8.38;;;3.55;;
46551;SDS011;32278;51.810;4.712;2023-04-23T09:49:21;10.10;;;3.83;;
46551;SDS011;32278;51.810;4.712;2023-04-23T09:51:48;9.50;;;3.08;;
46551;SDS011;32278;51.810;4.712;2023-04-23T09:54:18;14.15;;;3.55;;
46551;SDS011;32278;51.810;4.712;2023-04-23T09:56:48;9.18;;;2.22;;
46551;SDS011;32278;51.810;4.712;2023-04-23T09:59:18;10.18;;;3.33;;
46551;SDS011;32278;51.810;4.712;2023-04-23T10:01:45;10.45;;;2.70;;
46551;SDS011;32278;51.810;4.712;2023-04-23T10:04:11;11.27;;;3.60;;
46551;SDS011;32278;51.810;4.712;2023-04-23T10:06:38;9.20;;;2.67;;
46551;SDS011;32278;51.810;4.712;2023-04-23T10:09:04;10.32;;;2.53;;
46551;SDS011;32278;51.810;4.712;2023-04-23T10:11:29;9.43;;;2.58;;
46551;SDS011;32278;51.810;4.712;2023-04-23T10:13:56;6.65;;;2.40;;
46551;SDS011;32278;51.810;4.712;2023-04-23T10:16:22;5.45;;;2.08;;
46551;SDS011;32278;51.810;4.712;2023-04-23T10:18:49;5.65;;;2.88;;
46551;SDS011;32278;51.810;4.712;2023-04-23T10:21:16;7.60;;;3.00;;
46551;SDS011;32278;51.810;4.712;2023-04-23T10:23:43;6.43;;;2.67;;
46551;SDS011;32278;51.810;4.712;2023-04-23T10:26:09;11.82;;;2.45;;
46551;SDS011;32278;51.810;4.712;2023-04-23T10:28:36;7.13;;;1.98;;
46551;SDS011;32278;51.810;4.712;2023-04-23T10:31:03;6.13;;;1.50;;
46551;SDS011;32278;51.810;4.712;2023-04-23T10:33:30;8.55;;;2.58;;
46551;SDS011;32278;51.810;4.712;2023-04-23T10:35:56;6.20;;;1.90;;
46551;SDS011;32278;51.810;4.712;2023-04-23T10:38:22;4.78;;;2.13;;
46551;SDS011;32278;51.810;4.712;2023-04-23T10:40:49;7.32;;;1.88;;
46551;SDS011;32278;51.810;4.712;2023-04-23T10:43:16;9.88;;;1.83;;
46551;SDS011;32278;51.810;4.712;2023-04-23T10:45:42;8.10;;;1.58;;
46551;SDS011;32278;51.810;4.712;2023-04-23T10:48:08;7.40;;;1.88;;
46551;SDS011;32278;51.810;4.712;2023-04-23T10:50:34;4.82;;;1.73;;
46551;SDS011;32278;51.810;4.712;2023-04-23T10:53:01;7.93;;;1.85;;
46551;SDS011;32278;51.810;4.712;2023-04-23T10:55:28;14.25;;;2.38;;
46551;SDS011;32278;51.810;4.712;2023-04-23T10:57:58;8.07;;;1.90;;
46551;SDS011;32278;51.810;4.712;2023-04-23T11:00:25;6.40;;;1.83;;
46551;SDS011;32278;51.810;4.712;2023-04-23T11:02:52;8.98;;;2.28;;
46551;SDS011;32278;51.810;4.712;2023-04-23T11:05:18;5.47;;;1.73;;
46551;SDS011;32278;51.810;4.712;2023-04-23T11:10:29;7.53;;;2.03;;
46551;SDS011;32278;51.810;4.712;2023-04-23T11:12:56;6.38;;;1.50;;
46551;SDS011;32278;51.810;4.712;2023-04-23T11:15:22;11.40;;;2.75;;
46551;SDS011;32278;51.810;4.712;2023-04-23T11:20:18;4.10;;;1.50;;
46551;SDS011;32278;51.810;4.712;2023-04-23T11:25:26;10.48;;;1.73;;
46551;SDS011;32278;51.810;4.712;2023-04-23T11:27:53;5.60;;;1.60;;
46551;SDS011;32278;51.810;4.712;2023-04-23T11:30:20;4.05;;;2.03;;
46551;SDS011;32278;51.810;4.712;2023-04-23T11:32:50;7.80;;;1.88;;
46551;SDS011;32278;51.810;4.712;2023-04-23T11:35:17;8.52;;;2.13;;
46551;SDS011;32278;51.810;4.712;2023-04-23T11:37:44;4.82;;;1.77;;
46551;SDS011;32278;51.810;4.712;2023-04-23T11:40:11;6.15;;;1.20;;
46551;SDS011;32278;51.810;4.712;2023-04-23T11:42:49;11.55;;;2.20;;
46551;SDS011;32278;51.810;4.712;2023-04-23T11:45:16;6.93;;;1.67;;
46551;SDS011;32278;51.810;4.712;2023-04-23T11:47:43;5.65;;;1.52;;
46551;SDS011;32278;51.810;4.712;2023-04-23T11:50:10;6.72;;;1.48;;
46551;SDS011;32278;51.810;4.712;2023-04-23T11:52:36;6.50;;;1.50;;
46551;SDS011;32278;51.810;4.712;2023-04-23T11:55:02;5.72;;;1.42;;
46551;SDS011;32278;51.810;4.712;2023-04-23T11:57:33;4.40;;;1.65;;
46551;SDS011;32278;51.810;4.712;2023-04-23T11:59:59;8.10;;;1.40;;
46551;SDS011;32278;51.810;4.712;2023-04-23T12:02:27;8.82;;;1.60;;
46551;SDS011;32278;51.810;4.712;2023-04-23T12:04:53;3.05;;;0.77;;
46551;SDS011;32278;51.810;4.712;2023-04-23T12:07:20;10.65;;;2.08;;
46551;SDS011;32278;51.810;4.712;2023-04-23T12:09:57;5.20;;;1.63;;
46551;SDS011;32278;51.810;4.712;2023-04-23T12:12:31;5.75;;;1.63;;
46551;SDS011;32278;51.810;4.712;2023-04-23T12:15:04;7.97;;;1.40;;
46551;SDS011;32278;51.810;4.712;2023-04-23T12:17:31;4.18;;;1.40;;
46551;SDS011;32278;51.810;4.712;2023-04-23T12:19:57;4.38;;;1.20;;
46551;SDS011;32278;51.810;4.712;2023-04-23T12:22:26;5.70;;;1.65;;
46551;SDS011;32278;51.810;4.712;2023-04-23T12:24:52;5.90;;;1.30;;
46551;SDS011;32278;51.810;4.712;2023-04-23T12:27:19;10.48;;;1.67;;
46551;SDS011;32278;51.810;4.712;2023-04-23T12:29:48;7.78;;;1.60;;
46551;SDS011;32278;51.810;4.712;2023-04-23T12:32:15;6.25;;;2.22;;
46551;SDS011;32278;51.810;4.712;2023-04-23T12:34:56;9.98;;;2.10;;
46551;SDS011;32278;51.810;4.712;2023-04-23T12:37:24;15.40;;;2.03;;
46551;SDS011;32278;51.810;4.712;2023-04-23T12:39:50;8.73;;;2.05;;
46551;SDS011;32278;51.810;4.712;2023-04-23T12:42:17;4.70;;;2.58;;
46551;SDS011;32278;51.810;4.712;2023-04-23T12:44:43;2.45;;;1.45;;
46551;SDS011;32278;51.810;4.712;2023-04-23T12:47:10;8.00;;;1.70;;
46551;SDS011;32278;51.810;4.712;2023-04-23T12:49:37;6.78;;;1.80;;
46551;SDS011;32278;51.810;4.712;2023-04-23T12:52:03;5.78;;;1.60;;
46551;SDS011;32278;51.810;4.712;2023-04-23T12:54:30;2.60;;;1.65;;
46551;SDS011;32278;51.810;4.712;2023-04-23T12:56:57;8.23;;;1.45;;
46551;SDS011;32278;51.810;4.712;2023-04-23T12:59:23;6.00;;;1.75;;
46551;SDS011;32278;51.810;4.712;2023-04-23T13:01:49;10.18;;;2.10;;
46551;SDS011;32278;51.810;4.712;2023-04-23T13:04:15;5.70;;;1.80;;
46551;SDS011;32278;51.810;4.712;2023-04-23T13:06:41;4.60;;;1.40;;
46551;SDS011;32278;51.810;4.712;2023-04-23T13:09:08;6.95;;;1.80;;
46551;SDS011;32278;51.810;4.712;2023-04-23T13:11:35;5.53;;;1.98;;
46551;SDS011;32278;51.810;4.712;2023-04-23T13:14:01;4.63;;;1.60;;
46551;SDS011;32278;51.810;4.712;2023-04-23T13:16:27;9.25;;;1.50;;
46551;SDS011;32278;51.810;4.712;2023-04-23T13:18:54;4.10;;;1.60;;
46551;SDS011;32278;51.810;4.712;2023-04-23T13:21:20;8.45;;;1.75;;
46551;SDS011;32278;51.810;4.712;2023-04-23T13:23:46;6.20;;;2.05;;
46551;SDS011;32278;51.810;4.712;2023-04-23T13:26:12;5.68;;;1.83;;
46551;SDS011;32278;51.810;4.712;2023-04-23T13:28:38;8.27;;;1.70;;
46551;SDS011;32278;51.810;4.712;2023-04-23T13:31:04;4.07;;;1.58;;
46551;SDS011;32278;51.810;4.712;2023-04-23T13:33:31;4.88;;;1.55;;
46551;SDS011;32278;51.810;4.712;2023-04-23T13:35:57;7.85;;;2.00;;
46551;SDS011;32278;51.810;4.712;2023-04-23T13:38:24;7.45;;;2.25;;
46551;SDS011;32278;51.810;4.712;2023-04-23T13:40:50;5.63;;;2.10;;
46551;SDS011;32278;51.810;4.712;2023-04-23T13:43:16;6.75;;;2.17;;
46551;SDS011;32278;51.810;4.712;2023-04-23T13:45:42;6.70;;;2.05;;
46551;SDS011;32278;51.810;4.712;2023-04-23T13:48:08;5.10;;;1.50;;
46551;SDS011;32278;51.810;4.712;2023-04-23T13:50:34;4.90;;;1.95;;
46551;SDS011;32278;51.810;4.712;2023-04-23T13:53:00;7.95;;;2.40;;
46551;SDS011;32278;51.810;4.712;2023-04-23T13:55:26;5.65;;;1.38;;
46551;SDS011;32278;51.810;4.712;2023-04-23T13:57:52;11.27;;;2.00;;
46551;SDS011;32278;51.810;4.712;2023-04-23T14:00:22;5.68;;;1.90;;
46551;SDS011;32278;51.810;4.712;2023-04-23T14:02:48;13.52;;;1.80;;
46551;SDS011;32278;51.810;4.712;2023-04-23T14:05:14;10.68;;;2.40;;
46551;SDS011;32278;51.810;4.712;2023-04-23T14:07:40;7.18;;;2.45;;
46551;SDS011;32278;51.810;4.712;2023-04-23T14:10:06;8.45;;;4.18;;
46551;SDS011;32278;51.810;4.712;2023-04-23T14:12:32;12.90;;;3.10;;
46551;SDS011;32278;51.810;4.712;2023-04-23T14:14:58;7.95;;;3.38;;
46551;SDS011;32278;51.810;4.712;2023-04-23T14:17:24;6.60;;;3.08;;
46551;SDS011;32278;51.810;4.712;2023-04-23T14:19:50;8.32;;;3.08;;
46551;SDS011;32278;51.810;4.712;2023-04-23T14:22:16;9.93;;;3.20;;
46551;SDS011;32278;51.810;4.712;2023-04-23T14:24:45;9.93;;;3.08;;
46551;SDS011;32278;51.810;4.712;2023-04-23T14:27:14;5.88;;;2.83;;
46551;SDS011;32278;51.810;4.712;2023-04-23T14:29:45;8.07;;;2.78;;
46551;SDS011;32278;51.810;4.712;2023-04-23T14:32:11;12.93;;;3.88;;
46551;SDS011;32278;51.810;4.712;2023-04-23T14:34:38;13.18;;;3.10;;
46551;SDS011;32278;51.810;4.712;2023-04-23T14:37:04;9.88;;;1.98;;